sensor_id;sensor_type;location;lat;lon;timestamp;P1;durP1;ratioP1;P2;durP2;ratioP2
58553;SDS011;48119;53.218;6.576;2023-12-28T00:00:39;4.00;;;2.05;;
58553;SDS011;48119;53.218;6.576;2023-12-28T00:03:05;3.95;;;2.60;;
58553;SDS011;48119;53.218;6.576;2023-12-28T00:05:31;5.22;;;2.53;;
58553;SDS011;48119;53.218;6.576;2023-12-28T00:07:57;7.05;;;2.88;;
58553;SDS011;48119;53.218;6.576;2023-12-28T00:10:23;5.07;;;2.60;;
58553;SDS011;48119;53.218;6.576;2023-12-28T00:12:50;7.40;;;4.47;;
58553;SDS011;48119;53.218;6.576;2023-12-28T00:15:16;8.27;;;4.18;;
58553;SDS011;48119;53.218;6.576;2023-12-28T00:17:43;4.35;;;2.50;;
58553;SDS011;48119;53.218;6.576;2023-12-28T00:20:09;7.03;;;2.67;;
58553;SDS011;48119;53.218;6.576;2023-12-28T00:22:35;5.53;;;2.47;;
58553;SDS011;48119;53.218;6.576;2023-12-28T00:25:09;5.03;;;2.38;;
58553;SDS011;48119;53.218;6.576;2023-12-28T00:27:34;4.53;;;2.22;;
58553;SDS011;48119;53.218;6.576;2023-12-28T00:30:03;3.83;;;2.50;;
58553;SDS011;48119;53.218;6.576;2023-12-28T00:32:34;3.17;;;1.98;;
58553;SDS011;48119;53.218;6.576;2023-12-28T00:35:00;4.43;;;2.70;;
58553;SDS011;48119;53.218;6.576;2023-12-28T00:37:26;5.57;;;3.17;;
58553;SDS011;48119;53.218;6.576;2023-12-28T00:39:52;5.07;;;2.80;;
58553;SDS011;48119;53.218;6.576;2023-12-28T00:42:18;5.80;;;2.58;;
58553;SDS011;48119;53.218;6.576;2023-12-28T00:44:44;3.97;;;2.25;;
58553;SDS011;48119;53.218;6.576;2023-12-28T00:47:11;3.80;;;2.10;;
58553;SDS011;48119;53.218;6.576;2023-12-28T00:49:37;4.78;;;2.55;;
58553;SDS011;48119;53.218;6.576;2023-12-28T00:52:02;7.30;;;2.90;;
58553;SDS011;48119;53.218;6.576;2023-12-28T00:54:30;4.65;;;2.45;;
58553;SDS011;48119;53.218;6.576;2023-12-28T00:56:56;5.22;;;2.72;;
58553;SDS011;48119;53.218;6.576;2023-12-28T00:59:22;5.10;;;2.85;;
58553;SDS011;48119;53.218;6.576;2023-12-28T01:01:51;6.82;;;2.63;;
58553;SDS011;48119;53.218;6.576;2023-12-28T01:04:17;4.22;;;2.40;;
58553;SDS011;48119;53.218;6.576;2023-12-28T01:06:43;6.25;;;2.90;;
58553;SDS011;48119;53.218;6.576;2023-12-28T01:09:09;4.43;;;2.22;;
58553;SDS011;48119;53.218;6.576;2023-12-28T01:11:35;5.63;;;2.85;;
58553;SDS011;48119;53.218;6.576;2023-12-28T01:14:01;8.52;;;2.95;;
58553;SDS011;48119;53.218;6.576;2023-12-28T01:16:26;5.28;;;2.88;;
58553;SDS011;48119;53.218;6.576;2023-12-28T01:18:52;8.93;;;2.63;;
58553;SDS011;48119;53.218;6.576;2023-12-28T01:21:18;6.75;;;2.72;;
58553;SDS011;48119;53.218;6.576;2023-12-28T01:23:44;5.03;;;2.40;;
58553;SDS011;48119;53.218;6.576;2023-12-28T01:26:13;7.43;;;2.45;;
58553;SDS011;48119;53.218;6.576;2023-12-28T01:28:39;7.38;;;3.22;;
58553;SDS011;48119;53.218;6.576;2023-12-28T01:31:08;6.18;;;2.72;;
58553;SDS011;48119;53.218;6.576;2023-12-28T01:33:37;10.30;;;3.67;;
58553;SDS011;48119;53.218;6.576;2023-12-28T01:36:14;6.00;;;2.88;;
58553;SDS011;48119;53.218;6.576;2023-12-28T01:38:44;11.32;;;3.08;;
58553;SDS011;48119;53.218;6.576;2023-12-28T01:41:10;6.47;;;2.50;;
58553;SDS011;48119;53.218;6.576;2023-12-28T01:43:42;7.18;;;2.92;;
58553;SDS011;48119;53.218;6.576;2023-12-28T01:46:10;7.32;;;3.55;;
58553;SDS011;48119;53.218;6.576;2023-12-28T01:48:42;11.48;;;3.72;;
58553;SDS011;48119;53.218;6.576;2023-12-28T01:51:10;5.25;;;2.58;;
58553;SDS011;48119;53.218;6.576;2023-12-28T01:53:37;7.43;;;2.67;;
58553;SDS011;48119;53.218;6.576;2023-12-28T01:56:03;8.80;;;3.15;;
58553;SDS011;48119;53.218;6.576;2023-12-28T01:58:29;7.38;;;2.70;;
58553;SDS011;48119;53.218;6.576;2023-12-28T02:00:58;9.68;;;3.70;;
58553;SDS011;48119;53.218;6.576;2023-12-28T02:03:25;10.25;;;3.08;;
58553;SDS011;48119;53.218;6.576;2023-12-28T02:05:51;8.90;;;3.03;;
58553;SDS011;48119;53.218;6.576;2023-12-28T02:08:17;9.73;;;3.17;;
58553;SDS011;48119;53.218;6.576;2023-12-28T02:10:44;8.25;;;2.75;;
58553;SDS011;48119;53.218;6.576;2023-12-28T02:13:10;7.50;;;2.70;;
58553;SDS011;48119;53.218;6.576;2023-12-28T02:15:36;8.82;;;3.53;;
58553;SDS011;48119;53.218;6.576;2023-12-28T02:20:36;7.78;;;2.80;;
58553;SDS011;48119;53.218;6.576;2023-12-28T02:23:03;8.38;;;3.17;;
58553;SDS011;48119;53.218;6.576;2023-12-28T02:25:30;11.88;;;4.18;;
58553;SDS011;48119;53.218;6.576;2023-12-28T02:27:57;8.88;;;2.95;;
58553;SDS011;48119;53.218;6.576;2023-12-28T02:30:23;7.97;;;2.63;;
58553;SDS011;48119;53.218;6.576;2023-12-28T02:33:11;7.55;;;2.67;;
58553;SDS011;48119;53.218;6.576;2023-12-28T02:35:42;9.57;;;3.17;;
58553;SDS011;48119;53.218;6.576;2023-12-28T02:38:20;8.45;;;3.08;;
58553;SDS011;48119;53.218;6.576;2023-12-28T02:40:49;8.45;;;2.42;;
58553;SDS011;48119;53.218;6.576;2023-12-28T02:43:15;8.57;;;3.00;;
58553;SDS011;48119;53.218;6.576;2023-12-28T02:45:41;15.93;;;3.97;;
58553;SDS011;48119;53.218;6.576;2023-12-28T02:48:07;9.80;;;2.92;;
58553;SDS011;48119;53.218;6.576;2023-12-28T02:50:33;10.38;;;2.95;;
58553;SDS011;48119;53.218;6.576;2023-12-28T02:53:00;8.93;;;3.08;;
58553;SDS011;48119;53.218;6.576;2023-12-28T02:55:26;10.05;;;3.30;;
58553;SDS011;48119;53.218;6.576;2023-12-28T02:57:53;10.57;;;2.95;;
58553;SDS011;48119;53.218;6.576;2023-12-28T03:00:20;7.55;;;3.22;;
58553;SDS011;48119;53.218;6.576;2023-12-28T03:02:46;13.30;;;3.45;;
58553;SDS011;48119;53.218;6.576;2023-12-28T03:05:12;6.47;;;2.33;;
58553;SDS011;48119;53.218;6.576;2023-12-28T03:07:38;8.35;;;2.72;;
58553;SDS011;48119;53.218;6.576;2023-12-28T03:10:05;11.40;;;3.90;;
58553;SDS011;48119;53.218;6.576;2023-12-28T03:12:32;8.70;;;3.67;;
58553;SDS011;48119;53.218;6.576;2023-12-28T03:14:58;10.70;;;2.95;;
58553;SDS011;48119;53.218;6.576;2023-12-28T03:17:23;10.02;;;3.50;;
58553;SDS011;48119;53.218;6.576;2023-12-28T03:19:49;8.57;;;2.78;;
58553;SDS011;48119;53.218;6.576;2023-12-28T03:22:15;14.18;;;2.90;;
58553;SDS011;48119;53.218;6.576;2023-12-28T03:24:42;8.50;;;2.50;;
58553;SDS011;48119;53.218;6.576;2023-12-28T03:27:08;6.03;;;2.72;;
58553;SDS011;48119;53.218;6.576;2023-12-28T03:29:34;11.57;;;3.28;;
58553;SDS011;48119;53.218;6.576;2023-12-28T03:32:00;9.13;;;2.55;;
58553;SDS011;48119;53.218;6.576;2023-12-28T03:34:26;7.97;;;2.67;;
58553;SDS011;48119;53.218;6.576;2023-12-28T03:36:54;9.73;;;2.80;;
58553;SDS011;48119;53.218;6.576;2023-12-28T03:39:20;9.98;;;2.50;;
58553;SDS011;48119;53.218;6.576;2023-12-28T03:41:46;6.85;;;2.63;;
58553;SDS011;48119;53.218;6.576;2023-12-28T03:44:12;12.93;;;3.83;;
58553;SDS011;48119;53.218;6.576;2023-12-28T03:46:38;7.95;;;2.75;;
58553;SDS011;48119;53.218;6.576;2023-12-28T03:49:04;10.57;;;2.60;;
58553;SDS011;48119;53.218;6.576;2023-12-28T03:51:30;10.10;;;3.25;;
58553;SDS011;48119;53.218;6.576;2023-12-28T03:53:55;9.38;;;3.38;;
58553;SDS011;48119;53.218;6.576;2023-12-28T03:56:26;11.50;;;2.38;;
58553;SDS011;48119;53.218;6.576;2023-12-28T03:58:52;8.90;;;2.78;;
58553;SDS011;48119;53.218;6.576;2023-12-28T04:01:19;9.50;;;2.78;;
58553;SDS011;48119;53.218;6.576;2023-12-28T04:03:46;7.22;;;2.88;;
58553;SDS011;48119;53.218;6.576;2023-12-28T04:06:13;8.95;;;2.85;;
58553;SDS011;48119;53.218;6.576;2023-12-28T04:08:39;9.25;;;3.35;;
58553;SDS011;48119;53.218;6.576;2023-12-28T04:11:06;14.88;;;3.90;;
58553;SDS011;48119;53.218;6.576;2023-12-28T04:13:31;7.88;;;2.85;;
58553;SDS011;48119;53.218;6.576;2023-12-28T04:15:57;5.15;;;2.40;;
58553;SDS011;48119;53.218;6.576;2023-12-28T04:18:23;9.18;;;2.63;;
58553;SDS011;48119;53.218;6.576;2023-12-28T04:20:49;8.93;;;2.78;;
58553;SDS011;48119;53.218;6.576;2023-12-28T04:23:15;9.60;;;2.67;;
58553;SDS011;48119;53.218;6.576;2023-12-28T04:25:41;10.57;;;3.08;;
58553;SDS011;48119;53.218;6.576;2023-12-28T04:28:06;8.57;;;2.50;;
58553;SDS011;48119;53.218;6.576;2023-12-28T04:30:32;10.45;;;3.05;;
58553;SDS011;48119;53.218;6.576;2023-12-28T04:32:59;8.20;;;2.55;;
58553;SDS011;48119;53.218;6.576;2023-12-28T04:35:25;10.80;;;3.00;;
58553;SDS011;48119;53.218;6.576;2023-12-28T04:37:51;8.10;;;2.63;;
58553;SDS011;48119;53.218;6.576;2023-12-28T04:40:16;8.63;;;2.75;;
58553;SDS011;48119;53.218;6.576;2023-12-28T04:42:42;11.73;;;3.22;;
58553;SDS011;48119;53.218;6.576;2023-12-28T04:45:08;9.38;;;2.95;;
58553;SDS011;48119;53.218;6.576;2023-12-28T04:47:38;11.75;;;2.72;;
58553;SDS011;48119;53.218;6.576;2023-12-28T04:50:04;9.88;;;2.47;;
58553;SDS011;48119;53.218;6.576;2023-12-28T04:52:30;11.35;;;3.25;;
58553;SDS011;48119;53.218;6.576;2023-12-28T04:54:57;12.38;;;3.13;;
58553;SDS011;48119;53.218;6.576;2023-12-28T04:57:22;11.32;;;2.45;;
58553;SDS011;48119;53.218;6.576;2023-12-28T04:59:53;8.02;;;2.92;;
58553;SDS011;48119;53.218;6.576;2023-12-28T05:02:19;11.98;;;2.97;;
58553;SDS011;48119;53.218;6.576;2023-12-28T05:04:45;12.95;;;2.35;;
58553;SDS011;48119;53.218;6.576;2023-12-28T05:07:10;12.40;;;2.63;;
58553;SDS011;48119;53.218;6.576;2023-12-28T05:09:36;9.90;;;3.10;;
58553;SDS011;48119;53.218;6.576;2023-12-28T05:12:02;10.82;;;2.58;;
58553;SDS011;48119;53.218;6.576;2023-12-28T05:14:28;13.82;;;4.18;;
58553;SDS011;48119;53.218;6.576;2023-12-28T05:16:54;14.88;;;3.42;;
58553;SDS011;48119;53.218;6.576;2023-12-28T05:19:20;15.05;;;3.50;;
58553;SDS011;48119;53.218;6.576;2023-12-28T05:21:45;9.77;;;3.67;;
58553;SDS011;48119;53.218;6.576;2023-12-28T05:24:12;11.48;;;3.42;;
58553;SDS011;48119;53.218;6.576;2023-12-28T05:26:38;11.63;;;2.92;;
58553;SDS011;48119;53.218;6.576;2023-12-28T05:29:04;11.70;;;3.15;;
58553;SDS011;48119;53.218;6.576;2023-12-28T05:31:29;12.05;;;2.72;;
58553;SDS011;48119;53.218;6.576;2023-12-28T05:33:55;10.93;;;3.70;;
58553;SDS011;48119;53.218;6.576;2023-12-28T05:36:23;11.77;;;3.40;;
58553;SDS011;48119;53.218;6.576;2023-12-28T05:38:49;12.50;;;2.83;;
58553;SDS011;48119;53.218;6.576;2023-12-28T05:41:15;11.55;;;2.75;;
58553;SDS011;48119;53.218;6.576;2023-12-28T05:43:40;11.23;;;3.53;;
58553;SDS011;48119;53.218;6.576;2023-12-28T05:46:06;8.82;;;2.70;;
58553;SDS011;48119;53.218;6.576;2023-12-28T05:48:32;11.60;;;3.40;;
58553;SDS011;48119;53.218;6.576;2023-12-28T05:50:58;20.13;;;4.60;;
58553;SDS011;48119;53.218;6.576;2023-12-28T05:53:26;14.82;;;4.60;;
58553;SDS011;48119;53.218;6.576;2023-12-28T05:55:53;15.98;;;2.78;;
58553;SDS011;48119;53.218;6.576;2023-12-28T05:58:19;9.00;;;3.17;;
58553;SDS011;48119;53.218;6.576;2023-12-28T06:00:45;12.90;;;3.42;;
58553;SDS011;48119;53.218;6.576;2023-12-28T06:03:13;16.00;;;3.15;;
58553;SDS011;48119;53.218;6.576;2023-12-28T06:05:39;8.88;;;3.58;;
58553;SDS011;48119;53.218;6.576;2023-12-28T06:08:05;10.10;;;3.45;;
58553;SDS011;48119;53.218;6.576;2023-12-28T06:10:31;13.43;;;3.92;;
58553;SDS011;48119;53.218;6.576;2023-12-28T06:12:57;12.23;;;3.45;;
58553;SDS011;48119;53.218;6.576;2023-12-28T06:15:23;12.93;;;3.83;;
58553;SDS011;48119;53.218;6.576;2023-12-28T06:17:49;9.10;;;3.20;;
58553;SDS011;48119;53.218;6.576;2023-12-28T06:20:14;15.85;;;3.83;;
58553;SDS011;48119;53.218;6.576;2023-12-28T06:22:40;14.65;;;2.63;;
58553;SDS011;48119;53.218;6.576;2023-12-28T06:25:06;10.32;;;3.10;;
58553;SDS011;48119;53.218;6.576;2023-12-28T06:27:33;10.43;;;3.40;;
58553;SDS011;48119;53.218;6.576;2023-12-28T06:29:59;13.15;;;2.88;;
58553;SDS011;48119;53.218;6.576;2023-12-28T06:32:24;18.02;;;3.95;;
58553;SDS011;48119;53.218;6.576;2023-12-28T06:34:50;14.23;;;3.25;;
58553;SDS011;48119;53.218;6.576;2023-12-28T06:37:16;13.00;;;4.18;;
58553;SDS011;48119;53.218;6.576;2023-12-28T06:39:42;10.60;;;3.58;;
58553;SDS011;48119;53.218;6.576;2023-12-28T06:42:08;14.05;;;3.03;;
58553;SDS011;48119;53.218;6.576;2023-12-28T06:44:34;13.23;;;3.63;;
58553;SDS011;48119;53.218;6.576;2023-12-28T06:47:00;16.50;;;3.45;;
58553;SDS011;48119;53.218;6.576;2023-12-28T06:49:25;14.63;;;3.95;;
58553;SDS011;48119;53.218;6.576;2023-12-28T06:51:51;16.42;;;4.47;;
58553;SDS011;48119;53.218;6.576;2023-12-28T06:54:17;19.63;;;4.30;;
58553;SDS011;48119;53.218;6.576;2023-12-28T06:56:43;11.15;;;3.08;;
58553;SDS011;48119;53.218;6.576;2023-12-28T06:59:09;15.50;;;4.32;;
58553;SDS011;48119;53.218;6.576;2023-12-28T07:01:40;17.67;;;4.13;;
58553;SDS011;48119;53.218;6.576;2023-12-28T07:04:06;11.43;;;3.40;;
58553;SDS011;48119;53.218;6.576;2023-12-28T07:06:32;25.98;;;4.38;;
58553;SDS011;48119;53.218;6.576;2023-12-28T07:08:58;14.43;;;3.97;;
58553;SDS011;48119;53.218;6.576;2023-12-28T07:11:24;13.18;;;4.35;;
58553;SDS011;48119;53.218;6.576;2023-12-28T07:13:51;18.80;;;4.85;;
58553;SDS011;48119;53.218;6.576;2023-12-28T07:16:17;14.32;;;3.42;;
58553;SDS011;48119;53.218;6.576;2023-12-28T07:18:43;12.90;;;3.28;;
58553;SDS011;48119;53.218;6.576;2023-12-28T07:21:08;20.33;;;4.32;;
58553;SDS011;48119;53.218;6.576;2023-12-28T07:23:34;10.93;;;3.05;;
58553;SDS011;48119;53.218;6.576;2023-12-28T07:26:01;15.00;;;4.00;;
58553;SDS011;48119;53.218;6.576;2023-12-28T07:28:27;13.55;;;3.97;;
58553;SDS011;48119;53.218;6.576;2023-12-28T07:30:53;12.38;;;4.05;;
58553;SDS011;48119;53.218;6.576;2023-12-28T07:33:19;15.07;;;3.88;;
58553;SDS011;48119;53.218;6.576;2023-12-28T07:35:44;19.52;;;4.57;;
58553;SDS011;48119;53.218;6.576;2023-12-28T07:38:10;17.23;;;4.53;;
58553;SDS011;48119;53.218;6.576;2023-12-28T07:40:40;12.98;;;3.90;;
58553;SDS011;48119;53.218;6.576;2023-12-28T07:43:10;19.65;;;4.22;;
58553;SDS011;48119;53.218;6.576;2023-12-28T07:45:36;13.98;;;4.10;;
58553;SDS011;48119;53.218;6.576;2023-12-28T07:48:04;20.88;;;5.72;;
58553;SDS011;48119;53.218;6.576;2023-12-28T07:50:29;19.45;;;5.40;;
58553;SDS011;48119;53.218;6.576;2023-12-28T07:52:55;17.63;;;4.88;;
58553;SDS011;48119;53.218;6.576;2023-12-28T07:55:21;23.40;;;5.10;;
58553;SDS011;48119;53.218;6.576;2023-12-28T07:57:47;18.80;;;4.53;;
58553;SDS011;48119;53.218;6.576;2023-12-28T08:00:13;17.05;;;4.15;;
58553;SDS011;48119;53.218;6.576;2023-12-28T08:02:39;17.40;;;4.68;;
58553;SDS011;48119;53.218;6.576;2023-12-28T08:05:04;23.30;;;5.43;;
58553;SDS011;48119;53.218;6.576;2023-12-28T08:07:30;19.52;;;4.38;;
58553;SDS011;48119;53.218;6.576;2023-12-28T08:09:57;16.85;;;4.68;;
58553;SDS011;48119;53.218;6.576;2023-12-28T08:12:22;13.07;;;4.40;;
58553;SDS011;48119;53.218;6.576;2023-12-28T08:14:49;21.75;;;5.20;;
58553;SDS011;48119;53.218;6.576;2023-12-28T08:17:19;15.98;;;5.10;;
58553;SDS011;48119;53.218;6.576;2023-12-28T08:19:45;21.42;;;5.50;;
58553;SDS011;48119;53.218;6.576;2023-12-28T08:22:10;23.90;;;5.50;;
58553;SDS011;48119;53.218;6.576;2023-12-28T08:24:36;17.75;;;4.68;;
58553;SDS011;48119;53.218;6.576;2023-12-28T08:27:02;20.65;;;6.55;;
58553;SDS011;48119;53.218;6.576;2023-12-28T08:29:28;20.95;;;5.28;;
58553;SDS011;48119;53.218;6.576;2023-12-28T08:31:54;20.73;;;5.30;;
58553;SDS011;48119;53.218;6.576;2023-12-28T08:34:20;24.17;;;5.68;;
58553;SDS011;48119;53.218;6.576;2023-12-28T08:36:46;28.08;;;5.25;;
58553;SDS011;48119;53.218;6.576;2023-12-28T08:39:12;20.85;;;5.15;;
58553;SDS011;48119;53.218;6.576;2023-12-28T08:41:38;20.30;;;5.00;;
58553;SDS011;48119;53.218;6.576;2023-12-28T08:44:03;24.55;;;5.88;;
58553;SDS011;48119;53.218;6.576;2023-12-28T08:46:30;24.25;;;6.03;;
58553;SDS011;48119;53.218;6.576;2023-12-28T08:48:56;20.52;;;5.22;;
58553;SDS011;48119;53.218;6.576;2023-12-28T08:51:22;17.27;;;5.25;;
58553;SDS011;48119;53.218;6.576;2023-12-28T08:53:47;26.38;;;4.80;;
58553;SDS011;48119;53.218;6.576;2023-12-28T08:56:19;18.75;;;4.60;;
58553;SDS011;48119;53.218;6.576;2023-12-28T08:58:46;31.30;;;5.88;;
58553;SDS011;48119;53.218;6.576;2023-12-28T09:01:16;20.33;;;5.55;;
58553;SDS011;48119;53.218;6.576;2023-12-28T09:03:44;17.88;;;4.88;;
58553;SDS011;48119;53.218;6.576;2023-12-28T09:06:10;26.13;;;6.32;;
58553;SDS011;48119;53.218;6.576;2023-12-28T09:08:36;16.08;;;5.00;;
58553;SDS011;48119;53.218;6.576;2023-12-28T09:11:04;22.05;;;5.47;;
58553;SDS011;48119;53.218;6.576;2023-12-28T09:13:32;20.50;;;5.00;;
58553;SDS011;48119;53.218;6.576;2023-12-28T09:15:58;23.75;;;6.10;;
58553;SDS011;48119;53.218;6.576;2023-12-28T09:18:24;23.48;;;6.10;;
58553;SDS011;48119;53.218;6.576;2023-12-28T09:20:50;21.75;;;5.53;;
58553;SDS011;48119;53.218;6.576;2023-12-28T09:23:15;23.13;;;5.47;;
58553;SDS011;48119;53.218;6.576;2023-12-28T09:25:41;24.52;;;6.18;;
58553;SDS011;48119;53.218;6.576;2023-12-28T09:28:09;22.02;;;5.30;;
58553;SDS011;48119;53.218;6.576;2023-12-28T09:30:35;28.92;;;6.18;;
58553;SDS011;48119;53.218;6.576;2023-12-28T09:33:01;18.30;;;5.05;;
58553;SDS011;48119;53.218;6.576;2023-12-28T09:35:27;20.88;;;4.40;;
58553;SDS011;48119;53.218;6.576;2023-12-28T09:37:56;20.67;;;4.38;;
58553;SDS011;48119;53.218;6.576;2023-12-28T09:40:23;17.60;;;5.50;;
58553;SDS011;48119;53.218;6.576;2023-12-28T09:43:05;25.40;;;5.63;;
58553;SDS011;48119;53.218;6.576;2023-12-28T09:45:49;28.92;;;6.20;;
58553;SDS011;48119;53.218;6.576;2023-12-28T09:48:16;24.52;;;4.85;;
58553;SDS011;48119;53.218;6.576;2023-12-28T09:50:52;23.85;;;6.82;;
58553;SDS011;48119;53.218;6.576;2023-12-28T09:53:23;20.27;;;4.90;;
58553;SDS011;48119;53.218;6.576;2023-12-28T09:55:49;17.90;;;6.43;;
58553;SDS011;48119;53.218;6.576;2023-12-28T09:58:19;22.95;;;4.82;;
58553;SDS011;48119;53.218;6.576;2023-12-28T10:00:47;25.85;;;6.35;;
58553;SDS011;48119;53.218;6.576;2023-12-28T10:03:15;24.27;;;5.28;;
58553;SDS011;48119;53.218;6.576;2023-12-28T10:05:42;18.35;;;5.32;;
58553;SDS011;48119;53.218;6.576;2023-12-28T10:08:11;27.65;;;5.43;;
58553;SDS011;48119;53.218;6.576;2023-12-28T10:10:39;19.25;;;5.15;;
58553;SDS011;48119;53.218;6.576;2023-12-28T10:13:09;21.92;;;5.53;;
58553;SDS011;48119;53.218;6.576;2023-12-28T10:15:42;20.10;;;5.60;;
58553;SDS011;48119;53.218;6.576;2023-12-28T10:18:11;21.83;;;5.30;;
58553;SDS011;48119;53.218;6.576;2023-12-28T10:20:37;21.63;;;6.18;;
58553;SDS011;48119;53.218;6.576;2023-12-28T10:23:03;17.25;;;5.05;;
58553;SDS011;48119;53.218;6.576;2023-12-28T10:25:30;20.45;;;4.28;;
58553;SDS011;48119;53.218;6.576;2023-12-28T10:28:04;28.73;;;6.68;;
58553;SDS011;48119;53.218;6.576;2023-12-28T10:30:33;20.67;;;5.55;;
58553;SDS011;48119;53.218;6.576;2023-12-28T10:32:59;20.30;;;5.10;;
58553;SDS011;48119;53.218;6.576;2023-12-28T10:35:25;19.45;;;4.88;;
58553;SDS011;48119;53.218;6.576;2023-12-28T10:37:51;20.42;;;6.32;;
58553;SDS011;48119;53.218;6.576;2023-12-28T10:40:21;23.25;;;5.72;;
58553;SDS011;48119;53.218;6.576;2023-12-28T10:45:35;25.25;;;5.47;;
58553;SDS011;48119;53.218;6.576;2023-12-28T10:48:08;23.88;;;6.07;;
58553;SDS011;48119;53.218;6.576;2023-12-28T10:55:48;20.95;;;4.85;;
58553;SDS011;48119;53.218;6.576;2023-12-28T10:58:29;17.38;;;5.00;;
58553;SDS011;48119;53.218;6.576;2023-12-28T11:01:07;22.15;;;5.10;;
58553;SDS011;48119;53.218;6.576;2023-12-28T11:03:37;25.60;;;5.68;;
58553;SDS011;48119;53.218;6.576;2023-12-28T11:06:05;19.85;;;5.55;;
58553;SDS011;48119;53.218;6.576;2023-12-28T11:08:36;24.00;;;4.80;;
58553;SDS011;48119;53.218;6.576;2023-12-28T11:11:06;15.25;;;4.50;;
58553;SDS011;48119;53.218;6.576;2023-12-28T11:13:35;19.30;;;5.03;;
58553;SDS011;48119;53.218;6.576;2023-12-28T11:16:02;19.45;;;6.00;;
58553;SDS011;48119;53.218;6.576;2023-12-28T11:18:28;24.55;;;5.40;;
58553;SDS011;48119;53.218;6.576;2023-12-28T11:20:54;18.35;;;4.70;;
58553;SDS011;48119;53.218;6.576;2023-12-28T11:23:21;20.10;;;5.38;;
58553;SDS011;48119;53.218;6.576;2023-12-28T11:25:47;27.17;;;6.03;;
58553;SDS011;48119;53.218;6.576;2023-12-28T11:28:12;23.25;;;5.50;;
58553;SDS011;48119;53.218;6.576;2023-12-28T11:30:41;15.90;;;4.88;;
58553;SDS011;48119;53.218;6.576;2023-12-28T11:33:08;18.20;;;5.00;;
58553;SDS011;48119;53.218;6.576;2023-12-28T11:35:36;17.90;;;5.10;;
58553;SDS011;48119;53.218;6.576;2023-12-28T11:38:03;25.13;;;4.82;;
58553;SDS011;48119;53.218;6.576;2023-12-28T11:40:31;14.10;;;4.60;;
58553;SDS011;48119;53.218;6.576;2023-12-28T11:43:14;18.40;;;4.82;;
58553;SDS011;48119;53.218;6.576;2023-12-28T11:45:50;16.42;;;4.38;;
58553;SDS011;48119;53.218;6.576;2023-12-28T11:48:25;18.52;;;4.10;;
58553;SDS011;48119;53.218;6.576;2023-12-28T11:50:54;24.80;;;5.50;;
58553;SDS011;48119;53.218;6.576;2023-12-28T11:53:22;22.08;;;5.85;;
58553;SDS011;48119;53.218;6.576;2023-12-28T11:55:49;21.92;;;5.72;;
58553;SDS011;48119;53.218;6.576;2023-12-28T11:58:18;16.23;;;4.00;;
58553;SDS011;48119;53.218;6.576;2023-12-28T12:00:44;19.58;;;4.43;;
58553;SDS011;48119;53.218;6.576;2023-12-28T12:03:13;21.33;;;5.18;;
58553;SDS011;48119;53.218;6.576;2023-12-28T12:05:39;24.98;;;6.47;;
58553;SDS011;48119;53.218;6.576;2023-12-28T12:08:05;23.60;;;5.47;;
58553;SDS011;48119;53.218;6.576;2023-12-28T12:10:34;22.15;;;5.25;;
58553;SDS011;48119;53.218;6.576;2023-12-28T12:13:00;22.25;;;5.10;;
58553;SDS011;48119;53.218;6.576;2023-12-28T12:15:28;15.75;;;4.47;;
58553;SDS011;48119;53.218;6.576;2023-12-28T12:17:54;18.05;;;5.38;;
58553;SDS011;48119;53.218;6.576;2023-12-28T12:20:20;26.50;;;6.40;;
58553;SDS011;48119;53.218;6.576;2023-12-28T12:22:48;19.30;;;5.60;;
58553;SDS011;48119;53.218;6.576;2023-12-28T12:25:14;20.73;;;6.05;;
58553;SDS011;48119;53.218;6.576;2023-12-28T12:27:41;22.30;;;5.70;;
58553;SDS011;48119;53.218;6.576;2023-12-28T12:30:07;25.60;;;5.93;;
58553;SDS011;48119;53.218;6.576;2023-12-28T12:32:33;26.05;;;5.57;;
58553;SDS011;48119;53.218;6.576;2023-12-28T12:35:04;20.00;;;5.93;;
58553;SDS011;48119;53.218;6.576;2023-12-28T12:37:31;19.27;;;4.90;;
58553;SDS011;48119;53.218;6.576;2023-12-28T12:39:57;22.45;;;5.43;;
58553;SDS011;48119;53.218;6.576;2023-12-28T12:42:22;17.83;;;5.55;;
58553;SDS011;48119;53.218;6.576;2023-12-28T12:44:48;29.38;;;6.65;;
58553;SDS011;48119;53.218;6.576;2023-12-28T12:47:15;27.10;;;6.38;;
58553;SDS011;48119;53.218;6.576;2023-12-28T12:49:41;31.10;;;7.95;;
58553;SDS011;48119;53.218;6.576;2023-12-28T12:52:09;19.52;;;5.70;;
58553;SDS011;48119;53.218;6.576;2023-12-28T12:54:35;25.15;;;5.90;;
58553;SDS011;48119;53.218;6.576;2023-12-28T12:57:01;22.83;;;5.07;;
58553;SDS011;48119;53.218;6.576;2023-12-28T12:59:27;24.23;;;6.10;;
58553;SDS011;48119;53.218;6.576;2023-12-28T13:01:56;15.38;;;4.03;;
58553;SDS011;48119;53.218;6.576;2023-12-28T13:04:21;27.48;;;7.28;;
58553;SDS011;48119;53.218;6.576;2023-12-28T13:06:47;21.85;;;5.95;;
58553;SDS011;48119;53.218;6.576;2023-12-28T13:09:14;26.95;;;5.80;;
58553;SDS011;48119;53.218;6.576;2023-12-28T13:11:43;20.55;;;6.22;;
58553;SDS011;48119;53.218;6.576;2023-12-28T13:14:09;21.55;;;5.78;;
58553;SDS011;48119;53.218;6.576;2023-12-28T13:16:34;25.35;;;6.15;;
58553;SDS011;48119;53.218;6.576;2023-12-28T13:19:00;20.55;;;5.30;;
58553;SDS011;48119;53.218;6.576;2023-12-28T13:21:26;19.15;;;5.15;;
58553;SDS011;48119;53.218;6.576;2023-12-28T13:23:55;16.95;;;4.78;;
58553;SDS011;48119;53.218;6.576;2023-12-28T13:26:24;22.67;;;5.20;;
58553;SDS011;48119;53.218;6.576;2023-12-28T13:28:50;15.85;;;5.93;;
58553;SDS011;48119;53.218;6.576;2023-12-28T13:31:16;25.13;;;6.18;;
58553;SDS011;48119;53.218;6.576;2023-12-28T13:33:43;22.42;;;5.95;;
58553;SDS011;48119;53.218;6.576;2023-12-28T13:36:09;20.67;;;4.53;;
58553;SDS011;48119;53.218;6.576;2023-12-28T13:38:35;20.73;;;6.18;;
58553;SDS011;48119;53.218;6.576;2023-12-28T13:41:00;16.10;;;4.95;;
58553;SDS011;48119;53.218;6.576;2023-12-28T13:43:26;24.25;;;5.82;;
58553;SDS011;48119;53.218;6.576;2023-12-28T13:45:52;21.33;;;6.03;;
58553;SDS011;48119;53.218;6.576;2023-12-28T13:48:18;23.25;;;5.47;;
58553;SDS011;48119;53.218;6.576;2023-12-28T13:50:44;19.10;;;5.18;;
58553;SDS011;48119;53.218;6.576;2023-12-28T13:53:10;16.67;;;4.90;;
58553;SDS011;48119;53.218;6.576;2023-12-28T13:55:38;31.77;;;6.65;;
58553;SDS011;48119;53.218;6.576;2023-12-28T13:58:04;27.77;;;7.45;;
58553;SDS011;48119;53.218;6.576;2023-12-28T14:00:30;25.90;;;5.82;;
58553;SDS011;48119;53.218;6.576;2023-12-28T14:02:56;25.88;;;5.78;;
58553;SDS011;48119;53.218;6.576;2023-12-28T14:05:24;23.77;;;6.47;;
58553;SDS011;48119;53.218;6.576;2023-12-28T14:07:50;14.77;;;5.18;;
58553;SDS011;48119;53.218;6.576;2023-12-28T14:10:16;23.98;;;5.55;;
58553;SDS011;48119;53.218;6.576;2023-12-28T14:12:42;24.15;;;6.00;;
58553;SDS011;48119;53.218;6.576;2023-12-28T14:15:07;16.80;;;5.85;;
58553;SDS011;48119;53.218;6.576;2023-12-28T14:17:34;15.52;;;5.75;;
58553;SDS011;48119;53.218;6.576;2023-12-28T14:19:59;26.05;;;6.00;;
58553;SDS011;48119;53.218;6.576;2023-12-28T14:22:25;20.88;;;5.03;;
58553;SDS011;48119;53.218;6.576;2023-12-28T14:24:52;15.73;;;5.63;;
58553;SDS011;48119;53.218;6.576;2023-12-28T14:27:18;20.73;;;5.45;;
58553;SDS011;48119;53.218;6.576;2023-12-28T14:29:44;27.13;;;7.53;;
58553;SDS011;48119;53.218;6.576;2023-12-28T14:32:11;17.08;;;5.07;;
58553;SDS011;48119;53.218;6.576;2023-12-28T14:34:37;22.38;;;6.75;;
58553;SDS011;48119;53.218;6.576;2023-12-28T14:37:03;20.05;;;6.28;;
58553;SDS011;48119;53.218;6.576;2023-12-28T14:39:29;22.55;;;5.70;;
58553;SDS011;48119;53.218;6.576;2023-12-28T14:41:55;26.42;;;6.22;;
58553;SDS011;48119;53.218;6.576;2023-12-28T14:44:23;20.15;;;6.45;;
58553;SDS011;48119;53.218;6.576;2023-12-28T14:46:48;14.93;;;4.50;;